Time;durP1;ratioP1;P1;durP2;ratioP2;P2;SDS_P1;SDS_P2;PMS_P1;PMS_P2;Temp;Humidity;BMP_temperature;BMP_pressure;BME280_temperature;BME280_humidity;BME280_pressure;Samples;Min_cycle;Max_cycle;Signal;HPM_P1;HPM_P2
2022/07/12 00:05:55;;;;;;;4.95;3.47;;;;;;;;;;4593434;25;21344;-68
2022/07/12 00:08:40;;;;;;;4.70;3.72;;;;;;;;;;4636276;30;20043;-69
2022/07/12 00:11:26;;;;;;;7.65;3.72;;;;;;;;;;4627751;30;20501;-67
2022/07/12 00:14:12;;;;;;;6.15;3.60;;;;;;;;;;4637347;30;20078;-68
2022/07/12 00:16:57;;;;;;;5.85;3.40;;;;;;;;;;4689744;30;20087;-67
2022/07/12 00:19:43;;;;;;;7.75;3.13;;;;;;;;;;4686822;30;20512;-70
2022/07/12 00:22:28;;;;;;;6.00;3.83;;;;;;;;;;4700422;30;20137;-59
2022/07/12 00:25:14;;;;;;;3.97;3.28;;;;;;;;;;4738100;30;20131;-67
2022/07/12 00:27:59;;;;;;;5.68;3.67;;;;;;;;;;4749572;30;20036;-66
2022/07/12 00:30:45;;;;;;;6.45;3.88;;;;;;;;;;4746586;30;20463;-65
2022/07/12 00:33:31;;;;;;;6.25;3.70;;;;;;;;;;4772503;29;20054;-67
2022/07/12 00:36:16;;;;;;;5.63;3.50;;;;;;;;;;4727599;30;20036;-67
2022/07/12 00:39:02;;;;;;;5.15;3.33;;;;;;;;;;4754039;29;20047;-69
2022/07/12 00:41:48;;;;;;;7.70;3.45;;;;;;;;;;4791624;29;20038;-60
2022/07/12 00:44:34;;;;;;;5.20;3.75;;;;;;;;;;4790677;29;20034;-60
2022/07/12 00:47:40;;;;;;;6.10;3.85;;;;;;;;;;4792908;29;20027;-63
2022/07/12 00:50:26;;;;;;;4.63;3.50;;;;;;;;;;4792266;29;20039;-63
2022/07/12 00:53:12;;;;;;;6.20;3.60;;;;;;;;;;4767209;29;20098;-61
2022/07/12 00:55:58;;;;;;;7.05;4.05;;;;;;;;;;4728408;30;20063;-61
2022/07/12 00:58:44;;;;;;;7.13;4.07;;;;;;;;;;4757302;29;20098;-59
2022/07/12 01:01:30;;;;;;;6.60;4.10;;;;;;;;;;4774899;29;21222;-60
2022/07/12 01:04:18;;;;;;;5.03;3.10;;;;;;;;;;4795507;29;20070;-61
2022/07/12 01:07:04;;;;;;;5.22;3.40;;;;;;;;;;4774453;29;20046;-60
2022/07/12 01:09:50;;;;;;;5.60;3.63;;;;;;;;;;4802417;29;20395;-59
2022/07/12 01:12:36;;;;;;;4.80;3.40;;;;;;;;;;4790977;29;20023;-59
2022/07/12 01:15:22;;;;;;;5.57;3.60;;;;;;;;;;4796927;29;20051;-61
2022/07/12 01:18:09;;;;;;;6.30;4.57;;;;;;;;;;4788717;29;20494;-67
2022/07/12 01:20:54;;;;;;;7.45;3.80;;;;;;;;;;4769260;29;20145;-66
2022/07/12 01:23:40;;;;;;;5.40;3.70;;;;;;;;;;4784155;29;20035;-66
2022/07/12 01:26:27;;;;;;;4.72;3.47;;;;;;;;;;4752840;29;20039;-66
2022/07/12 01:29:13;;;;;;;5.13;3.70;;;;;;;;;;4786743;29;20071;-66
2022/07/12 01:35:07;;;;;;;6.50;3.53;;;;;;;;;;4839654;29;20073;-65
2022/07/12 01:37:53;;;;;;;5.95;3.58;;;;;;;;;;4826504;29;20026;-57
2022/07/12 01:40:39;;;;;;;5.93;4.05;;;;;;;;;;4772097;29;20391;-59
2022/07/12 01:43:24;;;;;;;6.20;3.90;;;;;;;;;;4751435;29;20110;-59
2022/07/12 01:46:10;;;;;;;6.75;3.88;;;;;;;;;;4732866;29;20036;-59
2022/07/12 01:48:56;;;;;;;5.22;3.58;;;;;;;;;;4745750;29;20099;-59
2022/07/12 01:51:42;;;;;;;9.07;4.40;;;;;;;;;;4754586;29;20033;-60
2022/07/12 01:54:27;;;;;;;6.28;4.00;;;;;;;;;;4747739;29;20045;-65
2022/07/12 01:57:13;;;;;;;5.45;3.22;;;;;;;;;;4742197;29;20048;-62
2022/07/12 02:00:00;;;;;;;7.20;4.72;;;;;;;;;;4799336;29;20034;-61
2022/07/12 02:02:47;;;;;;;4.20;3.50;;;;;;;;;;4780535;29;20031;-66
2022/07/12 02:05:32;;;;;;;5.00;3.50;;;;;;;;;;4776352;29;20035;-62
2022/07/12 02:08:18;;;;;;;4.97;3.97;;;;;;;;;;4806793;29;20041;-63
2022/07/12 02:11:03;;;;;;;7.78;4.00;;;;;;;;;;4843661;29;20049;-64
2022/07/12 02:13:49;;;;;;;4.68;3.40;;;;;;;;;;4812831;29;20030;-63
2022/07/12 02:16:34;;;;;;;5.72;3.40;;;;;;;;;;4789052;29;20038;-63
2022/07/12 02:19:20;;;;;;;5.57;3.55;;;;;;;;;;4813169;29;20041;-63
2022/07/12 02:22:06;;;;;;;6.18;3.38;;;;;;;;;;4843555;29;20045;-63
2022/07/12 02:24:51;;;;;;;5.80;3.88;;;;;;;;;;4800506;29;20035;-63
2022/07/12 02:27:38;;;;;;;7.50;4.53;;;;;;;;;;4799856;29;20037;-63
2022/07/12 02:30:23;;;;;;;8.02;3.90;;;;;;;;;;4819458;29;20545;-64
2022/07/12 02:33:09;;;;;;;5.20;3.53;;;;;;;;;;4825573;29;20557;-68
2022/07/12 02:35:55;;;;;;;5.50;3.47;;;;;;;;;;4802799;29;20034;-67
2022/07/12 02:38:40;;;;;;;5.28;3.17;;;;;;;;;;4810002;29;20122;-69
2022/07/12 02:41:26;;;;;;;6.78;3.65;;;;;;;;;;4857351;29;20485;-69
2022/07/12 02:44:11;;;;;;;8.07;4.53;;;;;;;;;;4875651;29;20040;-68
2022/07/12 02:58:43;;;;;;;6.50;3.03;;;;;;;;;;4756080;24;20064;-70
2022/07/12 03:01:29;;;;;;;6.20;4.40;;;;;;;;;;4803377;29;20050;-66
2022/07/12 03:04:14;;;;;;;5.60;3.55;;;;;;;;;;4818907;29;20037;-65
2022/07/12 03:07:00;;;;;;;5.65;3.50;;;;;;;;;;4829377;29;20102;-62
2022/07/12 03:09:45;;;;;;;4.97;3.88;;;;;;;;;;4896092;29;20475;-63
2022/07/12 03:12:31;;;;;;;4.28;3.25;;;;;;;;;;4894302;29;20024;-63
2022/07/12 03:15:17;;;;;;;9.43;4.13;;;;;;;;;;4905667;29;20031;-64
2022/07/12 03:18:02;;;;;;;5.22;3.55;;;;;;;;;;4913799;29;20152;-64
2022/07/12 03:20:48;;;;;;;4.35;3.55;;;;;;;;;;4899046;29;20060;-66
2022/07/12 03:23:34;;;;;;;6.63;3.72;;;;;;;;;;4870794;29;20788;-63
2022/07/12 03:26:20;;;;;;;6.82;3.58;;;;;;;;;;4869193;29;20485;-65
2022/07/12 03:29:05;;;;;;;4.90;3.65;;;;;;;;;;4856477;29;20076;-65
2022/07/12 03:31:51;;;;;;;4.30;3.10;;;;;;;;;;4892716;28;20095;-65
2022/07/12 03:34:37;;;;;;;5.45;3.33;;;;;;;;;;4827469;29;20034;-69
2022/07/12 03:37:22;;;;;;;4.57;3.05;;;;;;;;;;4847223;29;20055;-64
2022/07/12 03:40:08;;;;;;;6.50;3.05;;;;;;;;;;4817657;29;20109;-65
2022/07/12 03:42:54;;;;;;;4.65;2.90;;;;;;;;;;4850296;29;20043;-65
2022/07/12 03:45:42;;;;;;;5.38;3.38;;;;;;;;;;4858475;29;20025;-64
2022/07/12 03:48:27;;;;;;;4.28;2.95;;;;;;;;;;4852071;29;20057;-65
2022/07/12 03:51:13;;;;;;;4.25;3.20;;;;;;;;;;4872689;29;20068;-64
2022/07/12 03:53:58;;;;;;;3.83;2.80;;;;;;;;;;4913498;28;20375;-66
2022/07/12 03:59:48;;;;;;;4.82;3.08;;;;;;;;;;4884010;29;20036;-64
2022/07/12 04:02:34;;;;;;;4.50;2.80;;;;;;;;;;4920265;28;20035;-64
2022/07/12 04:05:19;;;;;;;4.90;3.13;;;;;;;;;;4880052;29;20130;-64
2022/07/12 04:08:05;;;;;;;3.47;2.88;;;;;;;;;;4908542;29;20099;-65
2022/07/12 04:10:51;;;;;;;5.45;3.10;;;;;;;;;;4945388;28;20084;-68
2022/07/12 04:13:37;;;;;;;5.45;3.38;;;;;;;;;;4990310;28;20041;-68
2022/07/12 04:16:22;;;;;;;5.93;3.15;;;;;;;;;;4980241;28;20081;-68
2022/07/12 04:19:11;;;;;;;3.80;2.72;;;;;;;;;;4989164;28;20082;-69
2022/07/12 04:21:57;;;;;;;3.70;2.92;;;;;;;;;;4978665;28;20026;-70
2022/07/12 04:24:42;;;;;;;3.70;3.03;;;;;;;;;;4983176;28;20108;-72
2022/07/12 04:27:28;;;;;;;3.50;2.75;;;;;;;;;;4986863;28;20038;-70
2022/07/12 04:30:14;;;;;;;3.47;2.75;;;;;;;;;;4983741;28;20019;-64
2022/07/12 04:32:59;;;;;;;4.25;2.83;;;;;;;;;;4994684;28;20030;-69
2022/07/12 04:35:45;;;;;;;3.30;2.65;;;;;;;;;;4981529;28;20026;-69
2022/07/12 04:38:31;;;;;;;3.47;2.72;;;;;;;;;;4990395;28;20037;-69
2022/07/12 04:41:16;;;;;;;3.45;2.55;;;;;;;;;;4991187;28;20053;-68
2022/07/12 04:44:03;;;;;;;3.42;2.85;;;;;;;;;;4998813;28;20030;-69
2022/07/12 04:46:49;;;;;;;4.25;3.15;;;;;;;;;;4981287;28;20592;-62
2022/07/12 04:49:35;;;;;;;7.20;3.40;;;;;;;;;;4978650;28;20026;-71
2022/07/12 04:52:21;;;;;;;4.60;2.88;;;;;;;;;;4989361;28;20033;-63
2022/07/12 04:55:06;;;;;;;10.65;2.85;;;;;;;;;;4998042;28;20073;-64
2022/07/12 04:57:52;;;;;;;3.83;2.83;;;;;;;;;;4985764;28;20106;-63
2022/07/12 05:00:38;;;;;;;3.13;2.40;;;;;;;;;;4975655;28;20066;-64
2022/07/12 05:03:26;;;;;;;3.65;2.53;;;;;;;;;;4983418;28;20034;-62
2022/07/12 05:06:11;;;;;;;5.60;3.30;;;;;;;;;;4988552;28;20031;-66
2022/07/12 05:08:58;;;;;;;5.15;2.78;;;;;;;;;;4972365;28;20062;-65
2022/07/12 05:11:43;;;;;;;4.93;2.85;;;;;;;;;;4947014;28;20121;-64
2022/07/12 05:14:29;;;;;;;4.75;2.95;;;;;;;;;;4968509;28;20042;-66
2022/07/12 05:17:14;;;;;;;3.28;2.30;;;;;;;;;;4968285;28;20380;-66
2022/07/12 05:20:00;;;;;;;3.42;2.88;;;;;;;;;;4982621;28;20033;-66
2022/07/12 05:22:46;;;;;;;5.25;2.97;;;;;;;;;;4989213;28;20372;-68
2022/07/12 05:25:32;;;;;;;4.20;2.95;;;;;;;;;;4989284;28;20054;-70
2022/07/12 05:28:17;;;;;;;5.65;3.28;;;;;;;;;;4982931;28;20038;-66
2022/07/12 05:31:03;;;;;;;4.47;3.03;;;;;;;;;;4984027;28;20045;-67
2022/07/12 05:33:48;;;;;;;4.78;3.13;;;;;;;;;;4978699;28;20042;-68
2022/07/12 05:36:34;;;;;;;5.90;2.63;;;;;;;;;;4942347;28;20099;-67
2022/07/12 05:39:20;;;;;;;5.32;3.10;;;;;;;;;;4943745;28;20386;-67
2022/07/12 05:42:05;;;;;;;5.13;3.10;;;;;;;;;;4955840;28;20066;-64
2022/07/12 05:44:51;;;;;;;4.82;2.95;;;;;;;;;;4969396;28;20076;-66
2022/07/12 05:47:36;;;;;;;4.57;2.55;;;;;;;;;;4965482;28;23331;-68
2022/07/12 05:50:22;;;;;;;3.70;2.83;;;;;;;;;;4956625;28;20049;-65
2022/07/12 05:53:23;;;;;;;4.00;2.80;;;;;;;;;;4973032;28;20042;-67
2022/07/12 05:56:08;;;;;;;6.30;3.10;;;;;;;;;;4964061;28;20042;-67
2022/07/12 05:58:54;;;;;;;4.22;3.13;;;;;;;;;;4967999;28;20026;-68
2022/07/12 06:01:40;;;;;;;4.53;2.75;;;;;;;;;;4963619;28;20038;-66
2022/07/12 06:04:26;;;;;;;6.38;2.72;;;;;;;;;;4975320;28;20046;-68
2022/07/12 06:07:11;;;;;;;4.53;3.67;;;;;;;;;;4983588;28;20026;-70
2022/07/12 06:09:57;;;;;;;5.68;3.20;;;;;;;;;;4985140;28;20426;-70
2022/07/12 06:12:43;;;;;;;4.47;3.05;;;;;;;;;;4970524;28;20109;-70
2022/07/12 06:15:29;;;;;;;5.22;3.20;;;;;;;;;;4977652;28;20049;-70
2022/07/12 06:18:14;;;;;;;3.72;2.72;;;;;;;;;;4983248;28;20034;-69
2022/07/12 06:21:00;;;;;;;7.53;3.22;;;;;;;;;;4970981;28;20444;-70
2022/07/12 06:23:45;;;;;;;12.13;4.93;;;;;;;;;;4966342;28;20362;-67
2022/07/12 06:26:31;;;;;;;4.78;3.03;;;;;;;;;;4986055;28;20043;-67
2022/07/12 06:29:17;;;;;;;6.72;3.00;;;;;;;;;;4999465;28;20025;-67
2022/07/12 06:32:02;;;;;;;5.15;3.33;;;;;;;;;;4997776;28;20030;-69
2022/07/12 06:34:48;;;;;;;7.90;3.03;;;;;;;;;;4988715;28;20030;-67
2022/07/12 06:37:33;;;;;;;8.70;3.17;;;;;;;;;;4991247;28;20065;-65
2022/07/12 06:40:19;;;;;;;7.63;2.55;;;;;;;;;;4994908;28;20500;-64
2022/07/12 06:43:08;;;;;;;4.70;2.40;;;;;;;;;;5002564;28;20137;-64
2022/07/12 06:45:53;;;;;;;4.88;2.15;;;;;;;;;;5003013;28;20389;-63
2022/07/12 06:48:39;;;;;;;4.40;2.47;;;;;;;;;;4996157;28;20179;-63
2022/07/12 06:51:25;;;;;;;5.90;2.47;;;;;;;;;;5001050;28;20029;-63
2022/07/12 06:54:10;;;;;;;7.10;2.30;;;;;;;;;;5005638;28;20080;-64
2022/07/12 06:56:56;;;;;;;5.80;2.47;;;;;;;;;;5002555;28;20487;-65
2022/07/12 06:59:41;;;;;;;4.63;2.13;;;;;;;;;;5005977;28;20484;-64
2022/07/12 07:02:27;;;;;;;3.67;2.03;;;;;;;;;;5005131;28;20467;-64
2022/07/12 07:05:15;;;;;;;2.20;1.60;;;;;;;;;;4992236;28;20036;-64
2022/07/12 07:08:00;;;;;;;3.20;1.92;;;;;;;;;;5002460;28;20076;-63
2022/07/12 07:10:46;;;;;;;2.67;1.60;;;;;;;;;;4991205;28;20027;-64
2022/07/12 07:13:32;;;;;;;3.08;2.00;;;;;;;;;;5005329;28;20459;-64
2022/07/12 07:16:20;;;;;;;5.20;1.77;;;;;;;;;;5001610;28;20026;-64
2022/07/12 07:19:05;;;;;;;2.40;1.83;;;;;;;;;;4983438;28;20027;-63
2022/07/12 07:21:51;;;;;;;4.20;1.92;;;;;;;;;;4979222;28;20491;-64
2022/07/12 07:24:37;;;;;;;3.72;1.70;;;;;;;;;;4985188;28;20038;-64
2022/07/12 07:27:23;;;;;;;2.95;1.63;;;;;;;;;;4986328;28;20046;-64
2022/07/12 07:33:13;;;;;;;3.25;1.90;;;;;;;;;;5002392;28;20038;-68
2022/07/12 07:35:58;;;;;;;4.93;1.83;;;;;;;;;;5003002;28;20364;-64
2022/07/12 07:38:46;;;;;;;2.53;1.83;;;;;;;;;;5004633;28;20350;-63
2022/07/12 07:41:32;;;;;;;3.55;1.35;;;;;;;;;;4997912;28;20120;-64
2022/07/12 07:44:17;;;;;;;5.38;1.55;;;;;;;;;;5003854;28;20034;-63
2022/07/12 07:47:03;;;;;;;4.88;1.40;;;;;;;;;;5003777;28;20029;-63
2022/07/12 07:49:49;;;;;;;1.50;0.82;;;;;;;;;;4989900;28;20033;-63
2022/07/12 07:52:34;;;;;;;2.25;1.10;;;;;;;;;;4996943;28;20089;-66
2022/07/12 07:55:20;;;;;;;3.03;1.50;;;;;;;;;;4983400;28;20735;-71
2022/07/12 07:58:05;;;;;;;1.80;1.15;;;;;;;;;;4987538;28;20022;-70
2022/07/12 08:00:51;;;;;;;2.63;1.10;;;;;;;;;;4982541;28;20034;-71
2022/07/12 08:03:37;;;;;;;1.05;0.80;;;;;;;;;;4978939;28;20384;-71
2022/07/12 08:06:22;;;;;;;0.77;0.75;;;;;;;;;;4972388;28;20041;-71
2022/07/12 08:09:08;;;;;;;1.52;0.90;;;;;;;;;;4947750;28;20517;-72
2022/07/12 08:11:54;;;;;;;2.35;0.90;;;;;;;;;;4986989;28;20104;-66
2022/07/12 08:14:39;;;;;;;1.23;1.10;;;;;;;;;;4980438;28;20049;-63
2022/07/12 08:17:25;;;;;;;2.05;1.08;;;;;;;;;;4988475;28;20038;-64
2022/07/12 08:20:10;;;;;;;3.03;1.20;;;;;;;;;;4972516;28;20026;-65
2022/07/12 08:22:56;;;;;;;1.48;1.10;;;;;;;;;;4947568;28;20045;-65
2022/07/12 08:25:42;;;;;;;1.48;1.23;;;;;;;;;;4974869;28;20034;-65
2022/07/12 08:28:28;;;;;;;2.10;0.82;;;;;;;;;;4968723;28;20396;-72
2022/07/12 08:31:14;;;;;;;0.93;0.80;;;;;;;;;;4980226;28;20058;-72
2022/07/12 08:33:59;;;;;;;0.80;0.80;;;;;;;;;;4978970;28;20038;-75
2022/07/12 08:36:45;;;;;;;1.38;0.90;;;;;;;;;;4971626;28;20034;-70
2022/07/12 08:39:31;;;;;;;0.80;0.80;;;;;;;;;;4987764;28;20053;-71
2022/07/12 08:42:18;;;;;;;0.60;0.60;;;;;;;;;;4996540;28;20084;-71
2022/07/12 08:45:04;;;;;;;0.80;0.77;;;;;;;;;;5002296;28;20026;-72
2022/07/12 08:47:50;;;;;;;1.35;0.80;;;;;;;;;;4986017;28;20033;-70
2022/07/12 08:50:35;;;;;;;4.72;1.13;;;;;;;;;;5000282;28;20068;-70
2022/07/12 08:53:21;;;;;;;2.00;0.80;;;;;;;;;;4986180;28;20073;-71
2022/07/12 08:56:07;;;;;;;0.85;0.73;;;;;;;;;;4998003;28;20038;-75
2022/07/12 08:59:08;;;;;;;0.90;0.80;;;;;;;;;;4985196;28;20034;-72
2022/07/12 09:01:54;;;;;;;1.73;1.08;;;;;;;;;;4982279;28;20030;-73
2022/07/12 09:04:39;;;;;;;1.73;1.00;;;;;;;;;;4990380;28;20044;-71
2022/07/12 09:07:26;;;;;;;2.60;0.82;;;;;;;;;;4998429;28;20727;-67
2022/07/12 09:10:12;;;;;;;0.80;0.80;;;;;;;;;;4993551;28;20118;-71
2022/07/12 09:12:58;;;;;;;2.10;1.10;;;;;;;;;;4991727;28;20034;-71
2022/07/12 09:15:46;;;;;;;2.05;0.95;;;;;;;;;;4997210;28;20389;-70
2022/07/12 09:18:32;;;;;;;1.83;0.98;;;;;;;;;;4979518;28;20038;-69
2022/07/12 09:21:25;;;;;;;1.42;1.10;;;;;;;;;;4988377;28;20461;-70
2022/07/12 09:24:10;;;;;;;2.20;1.10;;;;;;;;;;4994297;28;20034;-64
2022/07/12 09:27:03;;;;;;;3.38;1.00;;;;;;;;;;4932419;28;20039;-67
2022/07/12 09:29:49;;;;;;;1.70;0.95;;;;;;;;;;4936063;28;20027;-67
2022/07/12 09:38:52;;;;;;;1.35;1.08;;;;;;;;;;4963798;28;20423;-67
2022/07/12 09:41:38;;;;;;;0.82;0.80;;;;;;;;;;4961932;28;20110;-64
2022/07/12 09:44:23;;;;;;;3.00;1.15;;;;;;;;;;4977854;28;20041;-64
2022/07/12 09:47:13;;;;;;;2.22;1.00;;;;;;;;;;4995214;28;20480;-68
2022/07/12 09:49:58;;;;;;;1.13;1.02;;;;;;;;;;4990883;28;20041;-69
2022/07/12 09:52:45;;;;;;;1.92;0.88;;;;;;;;;;4932401;28;20372;-68
2022/07/12 09:55:32;;;;;;;1.20;1.02;;;;;;;;;;4957784;28;20039;-68
2022/07/12 09:58:30;;;;;;;1.25;0.80;;;;;;;;;;4967559;28;20027;-69
2022/07/12 10:01:16;;;;;;;1.27;0.90;;;;;;;;;;4978981;28;20052;-67
2022/07/12 10:04:02;;;;;;;3.63;0.90;;;;;;;;;;5001719;28;20034;-68
2022/07/12 10:06:48;;;;;;;1.23;0.77;;;;;;;;;;4971585;28;20029;-68
2022/07/12 10:09:35;;;;;;;0.88;0.80;;;;;;;;;;5000903;28;20038;-69
2022/07/12 10:12:22;;;;;;;0.98;0.75;;;;;;;;;;4994552;28;20032;-68
2022/07/12 10:15:09;;;;;;;1.67;1.00;;;;;;;;;;4991363;28;20116;-68
2022/07/12 10:17:59;;;;;;;2.05;1.10;;;;;;;;;;4988144;28;20096;-69
2022/07/12 10:20:48;;;;;;;0.90;0.70;;;;;;;;;;4999200;28;20034;-66
2022/07/12 10:23:36;;;;;;;;;;;;;;;;;;4999339;28;20145;-67
2022/07/12 10:26:37;;;;;;;0.60;0.60;;;;;;;;;;4986570;28;19914;-67
2022/07/12 10:29:23;;;;;;;3.13;1.00;;;;;;;;;;4995594;28;20461;-67
2022/07/12 10:32:25;;;;;;;1.67;1.00;;;;;;;;;;4999473;28;20029;-67
2022/07/12 10:35:21;;;;;;;0.75;0.70;;;;;;;;;;4964146;28;20035;-66
2022/07/12 10:38:09;;;;;;;1.60;0.90;;;;;;;;;;4973964;28;20039;-63
2022/07/12 10:40:55;;;;;;;2.37;0.83;;;;;;;;;;4989632;28;20131;-65
2022/07/12 10:47:00;;;;;;;1.10;0.80;;;;;;;;;;4987245;28;20032;-65
2022/07/12 10:49:47;;;;;;;1.90;0.75;;;;;;;;;;4995868;28;20029;-65
2022/07/12 10:52:33;;;;;;;1.45;0.90;;;;;;;;;;5004662;28;20125;-66
2022/07/12 10:55:19;;;;;;;3.05;0.80;;;;;;;;;;4992601;28;20460;-64
2022/07/12 10:58:04;;;;;;;1.80;0.70;;;;;;;;;;5001902;28;20077;-70
2022/07/12 11:00:50;;;;;;;4.18;1.00;;;;;;;;;;4992538;28;20489;-63
2022/07/12 11:03:42;;;;;;;0.93;0.77;;;;;;;;;;5003015;28;20038;-63
2022/07/12 11:06:27;;;;;;;1.48;0.65;;;;;;;;;;5001307;28;20072;-64
2022/07/12 11:09:16;;;;;;;7.72;1.25;;;;;;;;;;4981944;28;20034;-64
2022/07/12 11:12:02;;;;;;;2.60;1.08;;;;;;;;;;4990015;28;20030;-64
2022/07/12 11:14:50;;;;;;;1.30;0.85;;;;;;;;;;4987433;28;20037;-71
2022/07/12 11:17:36;;;;;;;3.92;1.35;;;;;;;;;;4996440;28;20026;-63
2022/07/12 11:20:27;;;;;;;1.67;0.88;;;;;;;;;;5000196;28;20037;-64
2022/07/12 11:23:12;;;;;;;2.78;1.10;;;;;;;;;;4989977;28;22690;-63
2022/07/12 11:26:02;;;;;;;0.82;0.80;;;;;;;;;;4995338;28;20092;-64
2022/07/12 11:28:48;;;;;;;4.80;0.95;;;;;;;;;;4999140;28;20168;-62
2022/07/12 11:31:34;;;;;;;2.00;0.93;;;;;;;;;;4980383;28;20054;-63
2022/07/12 11:34:21;;;;;;;2.42;0.93;;;;;;;;;;5001965;28;20037;-66
2022/07/12 11:37:06;;;;;;;3.97;1.00;;;;;;;;;;4989734;28;20029;-63
2022/07/12 11:39:52;;;;;;;3.97;1.25;;;;;;;;;;4985978;28;20086;-65
2022/07/12 11:42:37;;;;;;;0.55;0.55;;;;;;;;;;4998281;28;20552;-66
2022/07/12 11:45:24;;;;;;;1.42;0.88;;;;;;;;;;5001170;28;20489;-68
2022/07/12 11:48:09;;;;;;;4.03;0.80;;;;;;;;;;4988402;28;20496;-63
2022/07/12 11:50:55;;;;;;;1.50;0.57;;;;;;;;;;5001728;28;20088;-68
2022/07/12 11:53:41;;;;;;;1.55;0.65;;;;;;;;;;4977481;28;20029;-64
2022/07/12 11:56:32;;;;;;;1.13;0.80;;;;;;;;;;4992728;28;20047;-63
2022/07/12 11:59:22;;;;;;;2.22;0.90;;;;;;;;;;4998622;28;20023;-63
2022/07/12 12:02:09;;;;;;;0.50;0.50;;;;;;;;;;4999044;28;20080;-63
2022/07/12 12:04:55;;;;;;;2.22;1.10;;;;;;;;;;5001087;28;20485;-63
2022/07/12 12:07:40;;;;;;;1.80;0.80;;;;;;;;;;4984658;28;20037;-63
2022/07/12 12:10:26;;;;;;;4.10;1.15;;;;;;;;;;4995407;28;20125;-65
2022/07/12 12:13:15;;;;;;;0.60;0.60;;;;;;;;;;4999213;28;20477;-65
2022/07/12 12:16:02;;;;;;;0.70;0.70;;;;;;;;;;4984777;28;20037;-67
2022/07/12 12:18:48;;;;;;;0.60;0.60;;;;;;;;;;4983501;28;20065;-65
2022/07/12 12:21:34;;;;;;;1.00;0.80;;;;;;;;;;4992224;28;20065;-65
2022/07/12 12:24:19;;;;;;;0.68;0.60;;;;;;;;;;5003257;28;20034;-65
2022/07/12 12:27:22;;;;;;;1.90;0.45;;;;;;;;;;5000822;28;20042;-70
2022/07/12 12:30:07;;;;;;;0.68;0.65;;;;;;;;;;4997336;28;20432;-69
2022/07/12 12:32:57;;;;;;;2.65;0.80;;;;;;;;;;4984067;28;20014;-67
2022/07/12 12:35:43;;;;;;;3.65;0.75;;;;;;;;;;4999049;28;20087;-75
2022/07/12 12:38:29;;;;;;;0.82;0.55;;;;;;;;;;4971914;28;20042;-72
2022/07/12 12:41:15;;;;;;;1.70;0.90;;;;;;;;;;4985967;28;20088;-71
2022/07/12 12:44:04;;;;;;;0.90;0.60;;;;;;;;;;4991245;28;20061;-74
2022/07/12 12:47:36;;;;;;;3.38;1.00;;;;;;;;;;5001286;28;20069;-62
2022/07/12 12:49:59;;;;;;;1.75;0.70;;;;;;;;;;4965054;28;20053;-69
2022/07/12 12:52:47;;;;;;;0.95;0.85;;;;;;;;;;4999678;28;20045;-67
2022/07/12 12:55:33;;;;;;;1.48;0.95;;;;;;;;;;5001177;28;20404;-68
2022/07/12 12:58:19;;;;;;;3.22;1.17;;;;;;;;;;4999920;28;20416;-67
2022/07/12 13:01:06;;;;;;;1.33;0.80;;;;;;;;;;5002705;28;20119;-70
2022/07/12 13:03:51;;;;;;;2.50;0.75;;;;;;;;;;5000840;28;20076;-71
2022/07/12 13:06:37;;;;;;;1.92;0.70;;;;;;;;;;4996244;28;20045;-72
2022/07/12 13:09:23;;;;;;;0.68;0.68;;;;;;;;;;4985592;28;20026;-80
2022/07/12 13:12:09;;;;;;;1.98;1.00;;;;;;;;;;4993123;28;20038;-80
2022/07/12 13:14:55;;;;;;;1.95;0.73;;;;;;;;;;4991367;28;20515;-76
2022/07/12 13:17:40;;;;;;;1.38;0.70;;;;;;;;;;4965616;28;20026;-80
2022/07/12 13:20:30;;;;;;;1.80;0.60;;;;;;;;;;4971100;28;20044;-81
2022/07/12 13:23:15;;;;;;;2.75;0.90;;;;;;;;;;4986987;28;20125;-79
2022/07/12 13:26:01;;;;;;;0.60;0.60;;;;;;;;;;4978995;28;20026;-73
2022/07/12 13:28:47;;;;;;;2.80;0.70;;;;;;;;;;4972173;28;20385;-73
2022/07/12 13:31:32;;;;;;;2.97;1.00;;;;;;;;;;4961771;28;20058;-73
2022/07/12 13:34:21;;;;;;;4.15;0.60;;;;;;;;;;4970418;28;20500;-75
2022/07/12 13:37:06;;;;;;;1.50;0.70;;;;;;;;;;4976868;28;20041;-72
2022/07/12 13:40:10;;;;;;;2.63;0.85;;;;;;;;;;4904262;29;20039;-74
2022/07/12 13:42:56;;;;;;;1.20;0.80;;;;;;;;;;4924359;28;20058;-76
2022/07/12 13:45:44;;;;;;;0.80;0.60;;;;;;;;;;4933403;29;20046;-80
2022/07/12 13:48:29;;;;;;;1.90;0.75;;;;;;;;;;4907491;29;20054;-80
2022/07/12 13:51:15;;;;;;;1.17;0.70;;;;;;;;;;4931411;28;23933;-79
2022/07/12 13:54:01;;;;;;;0.93;0.70;;;;;;;;;;4934955;28;20043;-75
2022/07/12 13:56:47;;;;;;;2.25;0.75;;;;;;;;;;4911236;29;20075;-77
2022/07/12 13:59:32;;;;;;;1.88;0.60;;;;;;;;;;4923673;28;20051;-79
2022/07/12 14:02:18;;;;;;;1.92;0.60;;;;;;;;;;4919575;29;20450;-75
2022/07/12 14:05:04;;;;;;;1.83;0.60;;;;;;;;;;4906532;29;20042;-74
2022/07/12 14:07:50;;;;;;;2.60;0.70;;;;;;;;;;4904040;29;20020;-76
2022/07/12 14:10:36;;;;;;;3.00;0.70;;;;;;;;;;4943960;28;20105;-78
2022/07/12 14:13:22;;;;;;;0.75;0.70;;;;;;;;;;4979161;28;20038;-76
2022/07/12 14:16:07;;;;;;;1.67;0.90;;;;;;;;;;4951816;28;20027;-78
2022/07/12 14:18:53;;;;;;;2.92;1.02;;;;;;;;;;4973024;28;20088;-81
2022/07/12 14:21:39;;;;;;;0.98;0.85;;;;;;;;;;4941719;28;20047;-75
2022/07/12 14:24:24;;;;;;;1.33;0.65;;;;;;;;;;4997078;28;20029;-77
2022/07/12 14:27:10;;;;;;;1.48;1.05;;;;;;;;;;5000185;28;20029;-78
2022/07/12 14:29:55;;;;;;;1.33;0.80;;;;;;;;;;4978325;28;20053;-77
2022/07/12 14:32:41;;;;;;;1.05;0.70;;;;;;;;;;4996513;28;20037;-80
2022/07/12 14:35:27;;;;;;;1.10;0.77;;;;;;;;;;4989125;28;20728;-81
2022/07/12 14:38:12;;;;;;;1.65;0.93;;;;;;;;;;4982774;28;20038;-73
2022/07/12 14:40:58;;;;;;;1.52;0.70;;;;;;;;;;4983394;28;20046;-79
2022/07/12 14:43:44;;;;;;;1.95;0.82;;;;;;;;;;4982427;28;20030;-81
2022/07/12 14:46:29;;;;;;;2.63;0.70;;;;;;;;;;5002126;28;20539;-80
2022/07/12 14:49:15;;;;;;;3.20;1.08;;;;;;;;;;5000785;28;20034;-80
2022/07/12 14:52:00;;;;;;;0.93;0.80;;;;;;;;;;4996401;28;20026;-81
2022/07/12 14:54:46;;;;;;;1.27;0.57;;;;;;;;;;4986413;28;20034;-80
2022/07/12 14:57:31;;;;;;;1.88;0.80;;;;;;;;;;4968221;28;20045;-76
2022/07/12 15:00:17;;;;;;;0.60;0.60;;;;;;;;;;4985653;28;20061;-76
2022/07/12 15:03:03;;;;;;;2.40;0.80;;;;;;;;;;4984615;28;20547;-75
2022/07/12 15:05:51;;;;;;;1.20;0.63;;;;;;;;;;4958457;28;20038;-76
2022/07/12 15:08:37;;;;;;;1.90;0.77;;;;;;;;;;4968292;28;20038;-76
2022/07/12 15:11:23;;;;;;;2.97;0.70;;;;;;;;;;4978737;28;20049;-77
2022/07/12 15:14:08;;;;;;;3.33;0.80;;;;;;;;;;4957633;28;20097;-74
2022/07/12 15:16:54;;;;;;;1.27;0.80;;;;;;;;;;4951099;28;20031;-74
2022/07/12 15:19:40;;;;;;;3.17;0.77;;;;;;;;;;4992219;28;20036;-73
2022/07/12 15:22:25;;;;;;;1.65;0.57;;;;;;;;;;4966469;28;20042;-66
2022/07/12 15:25:11;;;;;;;1.35;0.80;;;;;;;;;;4967275;28;20041;-67
2022/07/12 15:27:56;;;;;;;0.57;0.55;;;;;;;;;;4946198;28;20427;-67
2022/07/12 15:30:42;;;;;;;3.58;0.75;;;;;;;;;;4941025;28;20493;-70
2022/07/12 15:33:28;;;;;;;1.33;0.63;;;;;;;;;;4925199;28;20083;-66
2022/07/12 15:36:13;;;;;;;1.35;0.90;;;;;;;;;;4937721;28;20082;-65
2022/07/12 15:38:59;;;;;;;2.45;0.90;;;;;;;;;;4961324;28;20485;-66
2022/07/12 15:41:44;;;;;;;1.25;0.70;;;;;;;;;;4947781;28;20497;-67
2022/07/12 15:44:30;;;;;;;1.23;0.70;;;;;;;;;;4957221;28;20078;-65
2022/07/12 15:47:16;;;;;;;1.00;0.80;;;;;;;;;;4930679;28;20128;-66
2022/07/12 15:50:02;;;;;;;0.95;0.85;;;;;;;;;;4963602;28;20038;-73
2022/07/12 15:55:51;;;;;;;0.80;0.80;;;;;;;;;;4979643;28;20034;-65
2022/07/12 15:58:38;;;;;;;0.90;0.73;;;;;;;;;;4972128;28;20046;-67
2022/07/12 16:01:23;;;;;;;2.08;0.80;;;;;;;;;;4979658;28;20030;-67
2022/07/12 16:04:09;;;;;;;3.17;0.90;;;;;;;;;;4980800;28;20436;-67
2022/07/12 16:06:55;;;;;;;1.45;0.70;;;;;;;;;;4978067;28;20465;-68
2022/07/12 16:09:41;;;;;;;2.00;0.70;;;;;;;;;;4957408;28;20038;-72
2022/07/12 16:12:26;;;;;;;0.70;0.60;;;;;;;;;;4930703;28;20030;-68
2022/07/12 16:15:12;;;;;;;1.83;0.90;;;;;;;;;;4950994;28;20030;-67
2022/07/12 16:17:58;;;;;;;0.75;0.70;;;;;;;;;;4900077;28;20119;-69
2022/07/12 16:20:44;;;;;;;0.75;0.63;;;;;;;;;;4946462;28;20068;-70
2022/07/12 16:23:30;;;;;;;1.45;0.80;;;;;;;;;;4962230;28;20051;-69
2022/07/12 16:26:15;;;;;;;2.00;0.90;;;;;;;;;;4953462;28;20082;-64
2022/07/12 16:29:01;;;;;;;1.67;0.80;;;;;;;;;;4928655;28;20121;-65
2022/07/12 16:31:47;;;;;;;0.80;0.63;;;;;;;;;;4975093;28;20050;-65
2022/07/12 16:34:34;;;;;;;0.63;0.63;;;;;;;;;;4937785;28;20641;-67
2022/07/12 16:37:20;;;;;;;0.80;0.70;;;;;;;;;;4932884;28;20030;-63
2022/07/12 16:40:06;;;;;;;2.25;0.90;;;;;;;;;;4948620;28;20034;-68
2022/07/12 16:42:53;;;;;;;0.70;0.70;;;;;;;;;;4939639;28;20034;-66
2022/07/12 16:45:39;;;;;;;1.58;0.80;;;;;;;;;;4941553;28;20071;-67
2022/07/12 16:48:25;;;;;;;0.88;0.85;;;;;;;;;;4948556;28;20036;-70
2022/07/12 16:51:22;;;;;;;1.80;1.08;;;;;;;;;;4928513;28;20452;-69
2022/07/12 16:54:08;;;;;;;2.03;1.10;;;;;;;;;;4975090;28;20117;-68
2022/07/12 16:56:54;;;;;;;1.15;0.90;;;;;;;;;;4955742;28;20135;-65
2022/07/12 16:59:40;;;;;;;1.02;0.75;;;;;;;;;;4955835;28;20573;-66
2022/07/12 17:02:26;;;;;;;1.15;0.90;;;;;;;;;;4940796;28;20496;-69
2022/07/12 17:05:11;;;;;;;3.28;1.00;;;;;;;;;;4938569;28;20054;-72
2022/07/12 17:07:57;;;;;;;0.90;0.60;;;;;;;;;;4906512;29;20423;-63
2022/07/12 17:10:42;;;;;;;2.33;0.77;;;;;;;;;;4921296;28;20114;-64
2022/07/12 17:13:30;;;;;;;1.48;0.90;;;;;;;;;;4922670;28;20043;-65
2022/07/12 17:16:16;;;;;;;1.15;0.80;;;;;;;;;;4931537;28;20109;-65